Time;durP1;ratioP1;P1;durP2;ratioP2;P2;SDS_P1;SDS_P2;PMS_P1;PMS_P2;Temp;Humidity;BMP_temperature;BMP_pressure;BME280_temperature;BME280_humidity;BME280_pressure;Samples;Min_cycle;Max_cycle;Signal;HPM_P1;HPM_P2
2022/09/26 00:01:33;;;;;;;0.30;0.20;;;11.60;99.90;;;12.27;94.47;100200.78;4992649;28;20641;-69
2022/09/26 00:04:14;;;;;;;0.30;0.20;;;11.60;99.90;;;12.29;93.76;100202.31;4970753;28;20742;-67
2022/09/26 00:06:42;;;;;;;1.40;1.30;;;11.60;99.90;;;12.24;93.29;100199.28;4972212;28;21217;-67
2022/09/26 00:09:09;;;;;;;0.30;0.30;;;11.60;99.90;;;12.27;93.04;100196.38;4990581;28;20692;-67
2022/09/26 00:11:36;;;;;;;0.30;0.20;;;11.60;99.90;;;12.30;92.83;100195.28;4971666;28;20674;-67
2022/09/26 00:14:09;;;;;;;0.30;0.30;;;11.60;99.90;;;12.23;92.73;100195.00;4975960;28;20626;-66
2022/09/26 00:16:37;;;;;;;0.30;0.20;;;11.50;99.90;;;12.13;92.58;100183.66;4993439;28;20678;-67
2022/09/26 00:19:05;;;;;;;0.30;0.20;;;11.50;99.90;;;12.11;93.06;100184.75;4990201;28;21201;-66
2022/09/26 00:21:33;;;;;;;0.30;0.30;;;11.50;99.90;;;12.08;94.01;100187.59;4992239;28;21252;-67
2022/09/26 00:24:00;;;;;;;0.30;0.20;;;11.40;99.90;;;12.07;93.91;100189.41;4992609;28;20611;-67
2022/09/26 00:26:30;;;;;;;0.30;0.30;;;11.40;99.90;;;12.11;93.93;100189.97;4983134;28;21411;-68
2022/09/26 00:28:59;;;;;;;0.30;0.30;;;11.40;99.90;;;12.14;94.20;100187.09;4971714;28;20631;-67
2022/09/26 00:31:30;;;;;;;0.50;0.50;;;11.40;99.90;;;12.08;93.98;100188.44;4991105;28;20630;-67
2022/09/26 00:33:58;;;;;;;0.30;0.20;;;11.40;99.90;;;12.11;93.93;100193.44;4988528;28;20700;-67
2022/09/26 00:36:28;;;;;;;0.30;0.30;;;11.40;99.90;;;12.15;94.35;100186.97;4971491;28;20639;-67
2022/09/26 00:39:07;;;;;;;0.30;0.20;;;11.40;99.90;;;12.22;93.22;100187.28;4985883;28;20618;-66
2022/09/26 00:41:36;;;;;;;0.30;0.20;;;11.50;99.90;;;12.23;93.88;100188.91;4972967;28;20622;-68
2022/09/26 00:44:42;;;;;;;1.37;0.87;;;11.50;99.90;;;12.27;93.47;100185.06;4991645;28;20635;-67
2022/09/26 00:47:38;;;;;;;0.30;0.20;;;11.50;99.90;;;12.28;93.14;100182.34;4992156;28;20614;-67
2022/09/26 00:50:22;;;;;;;0.30;0.20;;;11.50;99.90;;;12.25;93.12;100180.00;4969868;28;20663;-67
2022/09/26 00:53:17;;;;;;;0.30;0.20;;;11.50;99.90;;;12.21;93.20;100175.16;4973265;28;20684;-67
2022/09/26 00:55:53;;;;;;;0.30;0.30;;;11.50;99.90;;;12.22;93.01;100177.63;4970818;28;21171;-67
2022/09/26 00:58:28;;;;;;;0.30;0.20;;;11.50;99.90;;;12.22;92.85;100174.19;4971619;28;21043;-68
2022/09/26 01:00:56;;;;;;;0.30;0.30;;;11.50;99.90;;;12.18;92.97;100165.78;4986147;28;20658;-67
2022/09/26 01:03:24;;;;;;;0.63;0.63;;;11.50;99.90;;;12.17;92.71;100166.75;4982341;28;20643;-67
2022/09/26 01:05:52;;;;;;;0.30;0.20;;;11.50;99.90;;;12.13;92.16;100164.53;4987638;28;20702;-67
2022/09/26 01:08:25;;;;;;;0.30;0.30;;;11.50;99.90;;;12.08;93.55;100154.44;4990878;28;20626;-67
2022/09/26 01:10:52;;;;;;;0.30;0.20;;;11.40;99.90;;;11.97;93.64;100154.53;4977536;28;21119;-67
2022/09/26 01:13:20;;;;;;;0.30;0.20;;;11.30;99.90;;;12.08;93.10;100159.69;4989471;28;20781;-67
2022/09/26 01:15:47;;;;;;;0.30;0.20;;;11.40;99.90;;;12.00;93.70;100150.84;4970016;28;20620;-66
2022/09/26 01:18:14;;;;;;;1.07;0.97;;;11.30;99.90;;;11.95;93.60;100153.00;4992094;28;20619;-67
2022/09/26 01:21:15;;;;;;;0.30;0.20;;;11.30;99.90;;;11.99;94.01;100154.44;4990918;28;20976;-66
2022/09/26 01:24:31;;;;;;;0.30;0.20;;;11.30;99.90;;;12.06;93.42;100140.69;4968440;28;20640;-66
2022/09/26 01:27:15;;;;;;;0.30;0.20;;;11.30;99.90;;;11.96;93.76;100138.97;4980484;28;20643;-67
2022/09/26 01:30:05;;;;;;;0.30;0.20;;;11.30;99.90;;;11.73;94.61;100135.72;4986898;28;20646;-67
2022/09/26 01:33:10;;;;;;;0.30;0.30;;;11.20;99.90;;;11.67;95.40;100139.66;4974016;28;20658;-66
2022/09/26 01:36:13;;;;;;;0.30;0.20;;;11.10;99.90;;;11.61;95.33;100141.91;4992137;28;20677;-66
2022/09/26 01:38:55;;;;;;;0.30;0.20;;;11.00;99.90;;;11.71;95.06;100135.03;4989930;28;20646;-67
2022/09/26 01:42:01;;;;;;;0.30;0.30;;;11.00;99.90;;;11.71;94.97;100135.03;4990702;28;20642;-67
2022/09/26 01:44:53;;;;;;;0.30;0.20;;;11.00;99.90;;;11.64;94.19;100139.06;4961275;28;21173;-67
2022/09/26 01:47:30;;;;;;;0.30;0.20;;;11.00;99.90;;;11.59;93.92;100139.44;4990050;28;20623;-67
2022/09/26 01:50:17;;;;;;;0.30;0.20;;;10.90;99.90;;;11.59;94.95;100147.28;4974543;28;21239;-68
2022/09/26 01:53:15;;;;;;;0.30;0.20;;;10.90;99.90;;;11.60;95.14;100138.50;4969385;28;21290;-67
2022/09/26 01:55:50;;;;;;;0.30;0.20;;;10.90;99.90;;;11.72;94.69;100136.66;4970097;28;20635;-67
2022/09/26 01:58:32;;;;;;;0.30;0.20;;;11.00;99.90;;;11.85;94.71;100137.28;4952845;28;20641;-67
2022/09/26 02:01:08;;;;;;;0.30;0.20;;;11.00;99.90;;;11.80;93.70;100128.19;4965283;28;20664;-68
2022/09/26 02:03:51;;;;;;;0.30;0.20;;;11.10;99.90;;;11.79;94.00;100124.75;4965168;28;20635;-67
2022/09/26 02:06:27;;;;;;;0.30;0.20;;;11.10;99.90;;;11.93;93.95;100119.16;4952839;28;20647;-67
2022/09/26 02:09:01;;;;;;;0.30;0.20;;;11.20;99.90;;;11.96;93.39;100121.53;4970034;28;21190;-69
2022/09/26 02:11:28;;;;;;;0.30;0.30;;;11.20;99.90;;;11.98;92.66;100127.44;4969280;28;20643;-66
2022/09/26 02:14:05;;;;;;;0.30;0.20;;;11.20;99.90;;;11.88;93.72;100118.75;4980437;28;20675;-66
2022/09/26 02:16:42;;;;;;;0.30;0.20;;;11.20;99.90;;;11.84;94.94;100116.50;4959148;28;20622;-67
2022/09/26 02:19:18;;;;;;;1.37;1.27;;;11.20;99.90;;;11.90;94.46;100118.59;4972508;28;21166;-67
2022/09/26 02:21:46;;;;;;;0.30;0.20;;;11.20;99.90;;;11.88;94.34;100120.53;4990100;28;20634;-67
2022/09/26 02:24:13;;;;;;;0.30;0.20;;;11.20;99.90;;;11.75;94.13;100117.28;4970993;28;21244;-67
2022/09/26 02:26:44;;;;;;;0.30;0.20;;;11.20;99.90;;;11.88;94.21;100110.91;4973832;28;20623;-67
2022/09/26 02:29:14;;;;;;;0.30;0.20;;;11.20;99.90;;;12.01;93.08;100094.97;4976973;28;20635;-67
2022/09/26 02:31:50;;;;;;;0.30;0.30;;;11.30;99.90;;;12.01;93.80;100094.97;4972708;28;20643;-67
2022/09/26 02:34:17;;;;;;;0.30;0.20;;;11.30;99.90;;;12.02;93.79;100092.22;4975918;28;20654;-66
2022/09/26 02:36:45;;;;;;;0.30;0.30;;;11.30;99.90;;;11.84;94.41;100093.78;4976436;28;20646;-65
2022/09/26 02:39:12;;;;;;;0.30;0.20;;;11.20;99.90;;;11.80;94.11;100089.78;4993448;28;20611;-67
2022/09/26 02:42:32;;;;;;;0.30;0.20;;;11.20;99.90;;;11.98;93.27;100083.00;4993712;28;20727;-66
2022/09/26 02:45:06;;;;;;;0.30;0.30;;;11.20;99.90;;;11.86;93.41;100078.00;4932322;29;21361;-68
2022/09/26 02:47:46;;;;;;;0.30;0.30;;;11.20;99.90;;;11.85;93.15;100077.16;4945676;29;20828;-67
2022/09/26 02:50:48;;;;;;;0.30;0.20;;;11.20;99.90;;;11.66;93.92;100069.22;4965162;28;20646;-67
2022/09/26 02:53:42;;;;;;;0.30;0.20;;;11.10;99.90;;;11.30;96.33;100057.47;4994156;28;20740;-67
2022/09/26 02:56:18;;;;;;;0.60;0.60;;;11.00;99.90;;;11.23;98.11;100056.31;4993125;28;20642;-67
2022/09/26 02:59:40;;;;;;;0.30;0.30;;;10.80;99.90;;;11.38;97.10;100051.59;4973232;28;20633;-67
2022/09/26 03:02:14;;;;;;;0.30;0.20;;;10.80;99.90;;;11.51;95.92;100047.00;4966087;28;20681;-67
2022/09/26 03:05:00;;;;;;;0.30;0.30;;;10.90;99.90;;;11.48;95.55;100045.47;4974087;28;20687;-67
2022/09/26 03:07:37;;;;;;;0.30;0.30;;;10.90;99.90;;;11.52;95.27;100040.81;4974935;28;21221;-67
2022/09/26 03:10:07;;;;;;;0.30;0.30;;;10.90;99.90;;;11.52;95.47;100043.44;4997762;23;21308;-61
2022/09/26 03:12:37;;;;;;;0.30;0.20;;;10.90;99.90;;;11.52;95.51;100040.81;5030965;28;21020;-64
2022/09/26 03:15:06;;;;;;;0.30;0.20;;;10.80;99.90;;;11.56;95.41;100039.59;5029112;28;20632;-63
2022/09/26 03:17:35;;;;;;;0.30;0.30;;;10.90;99.90;;;11.62;94.42;100036.47;5015251;28;20624;-63
2022/09/26 03:20:22;;;;;;;0.30;0.30;;;10.90;99.90;;;11.53;94.12;100026.78;5014995;28;20641;-64
2022/09/26 03:22:49;;;;;;;0.73;0.73;;;10.90;99.90;;;11.58;94.38;100024.63;5033032;28;20949;-63
2022/09/26 03:25:24;;;;;;;0.30;0.23;;;10.90;99.90;;;11.52;94.46;100035.59;5032367;28;20612;-64
2022/09/26 03:27:53;;;;;;;0.40;0.40;;;10.80;99.90;;;11.54;94.11;100033.69;5031564;28;20644;-63
2022/09/26 03:30:21;;;;;;;0.30;0.20;;;10.80;99.90;;;11.46;94.09;100031.69;5001669;28;20649;-64
2022/09/26 03:32:49;;;;;;;0.30;0.20;;;10.80;99.90;;;11.52;93.88;100030.38;5028911;28;20660;-64
2022/09/26 03:35:16;;;;;;;0.30;0.20;;;10.80;99.90;;;11.44;93.86;100030.19;4993471;28;21044;-64
2022/09/26 03:37:43;;;;;;;0.30;0.30;;;10.80;99.90;;;11.31;96.04;100019.09;5026937;28;20617;-63
2022/09/26 03:40:11;;;;;;;0.30;0.30;;;10.80;99.90;;;11.22;96.11;100014.69;5027932;28;21231;-64
2022/09/26 03:42:38;;;;;;;0.30;0.20;;;10.80;99.90;;;11.28;94.86;100011.53;5030359;28;20641;-64
2022/09/26 03:45:11;;;;;;;0.30;0.20;;;10.70;99.90;;;11.26;95.34;100005.63;5012312;28;20688;-64
2022/09/26 03:47:38;;;;;;;0.30;0.30;;;10.70;99.90;;;11.29;95.56;100008.78;5010490;28;20606;-64
2022/09/26 03:50:06;;;;;;;0.30;0.30;;;10.70;99.90;;;11.30;95.35;100007.03;5010968;28;21050;-64
2022/09/26 03:52:33;;;;;;;0.30;0.20;;;10.70;99.90;;;11.23;95.04;99998.03;5022833;28;20633;-63
2022/09/26 03:54:59;;;;;;;0.30;0.20;;;10.70;99.90;;;11.10;96.38;99995.63;5031019;28;21175;-64
2022/09/26 03:57:26;;;;;;;0.37;0.37;;;10.70;99.90;;;10.96;98.58;99992.53;5030153;28;20621;-63
2022/09/26 03:59:54;;;;;;;0.30;0.20;;;10.60;99.90;;;11.00;98.77;99989.53;5028174;28;20641;-64
2022/09/26 04:02:21;;;;;;;0.30;0.30;;;10.50;99.90;;;10.93;97.79;99977.94;5030961;28;20723;-64
2022/09/26 04:04:48;;;;;;;0.30;0.30;;;10.50;99.90;;;10.79;99.28;99981.72;5029904;28;20653;-63
2022/09/26 04:07:15;;;;;;;0.30;0.20;;;10.40;99.90;;;10.81;100.00;99979.81;5013371;28;20628;-64
2022/09/26 04:09:42;;;;;;;0.70;0.70;;;10.40;99.90;;;10.76;100.00;99978.53;5013436;28;20674;-63
2022/09/26 04:12:08;;;;;;;0.30;0.23;;;10.30;99.90;;;10.71;100.00;99975.50;5012692;28;20610;-64
2022/09/26 04:14:35;;;;;;;0.30;0.20;;;10.30;99.90;;;10.80;100.00;99978.16;5011577;28;20665;-64
2022/09/26 04:17:02;;;;;;;0.40;0.40;;;10.30;99.90;;;10.64;100.00;99976.94;5030027;28;20993;-64
2022/09/26 04:19:29;;;;;;;0.30;0.20;;;10.30;99.90;;;10.60;100.00;99972.94;5031231;28;20612;-64
2022/09/26 04:21:57;;;;;;;0.30;0.20;;;10.20;99.90;;;10.59;100.00;99979.91;5025825;28;20710;-63
2022/09/26 04:24:25;;;;;;;0.30;0.20;;;10.20;99.90;;;10.57;100.00;99965.34;5021567;28;20640;-64
2022/09/26 04:26:52;;;;;;;0.30;0.23;;;10.20;99.90;;;10.43;100.00;99966.50;5030668;28;20619;-64
2022/09/26 04:29:19;;;;;;;0.30;0.20;;;10.10;99.90;;;10.47;100.00;99952.25;5025223;28;20640;-64
2022/09/26 04:31:46;;;;;;;0.30;0.20;;;10.10;99.90;;;10.35;100.00;99953.22;5013991;28;20647;-64
2022/09/26 04:34:14;;;;;;;0.30;0.20;;;10.10;99.90;;;10.39;100.00;99946.81;5003200;28;20674;-64
2022/09/26 04:36:42;;;;;;;0.30;0.20;;;10.00;99.90;;;10.26;100.00;99942.72;5031460;28;20620;-64
2022/09/26 04:39:09;;;;;;;0.30;0.20;;;9.90;99.90;;;10.26;100.00;99938.34;5011964;28;20631;-64
2022/09/26 04:41:37;;;;;;;0.30;0.20;;;10.00;99.90;;;10.37;100.00;99938.28;5031418;28;20996;-64
2022/09/26 04:44:04;;;;;;;0.30;0.20;;;10.00;99.90;;;10.39;100.00;99930.34;5012621;28;20673;-64
2022/09/26 04:46:31;;;;;;;0.30;0.30;;;10.00;99.90;;;10.27;100.00;99929.56;5018397;28;20655;-62
2022/09/26 04:48:59;;;;;;;0.50;0.50;;;9.90;99.90;;;10.24;100.00;99924.63;5025441;28;20644;-63
2022/09/26 04:51:28;;;;;;;0.30;0.30;;;9.90;99.90;;;10.26;100.00;99935.75;5029813;28;20652;-62
2022/09/26 04:53:55;;;;;;;0.30;0.20;;;9.90;99.90;;;10.32;99.99;99924.81;5003097;28;20671;-63
2022/09/26 04:56:25;;;;;;;0.30;0.30;;;9.90;99.90;;;10.30;100.00;99933.72;5031375;28;21183;-62
2022/09/26 04:58:55;;;;;;;0.30;0.20;;;9.90;99.90;;;10.42;99.34;99930.91;5012431;28;21040;-62
2022/09/26 05:01:22;;;;;;;0.30;0.20;;;9.90;99.90;;;10.46;98.89;99929.72;5030066;28;20655;-62
2022/09/26 05:03:50;;;;;;;0.60;0.47;;;10.00;99.90;;;10.52;98.00;99923.97;5013239;28;20682;-63
2022/09/26 05:06:17;;;;;;;0.30;0.20;;;10.00;99.90;;;10.50;98.23;99928.50;5026244;28;20640;-62
2022/09/26 05:08:47;;;;;;;0.30;0.20;;;10.00;99.90;;;10.48;98.46;99919.97;5012472;28;20713;-63
2022/09/26 05:11:16;;;;;;;0.40;0.40;;;10.00;99.90;;;10.33;99.20;99921.25;5030629;28;20713;-63
2022/09/26 05:13:44;;;;;;;0.30;0.20;;;10.00;99.90;;;10.35;99.22;99919.31;5011980;28;20654;-63
2022/09/26 05:16:13;;;;;;;0.30;0.20;;;10.00;99.90;;;10.33;99.56;99921.25;5030834;28;20624;-63
2022/09/26 05:18:40;;;;;;;0.30;0.30;;;9.90;99.90;;;10.33;99.37;99918.63;5024900;28;20731;-62
2022/09/26 05:21:08;;;;;;;0.30;0.20;;;9.90;99.90;;;10.16;100.00;99908.75;5030360;28;20710;-63
2022/09/26 05:26:23;;;;;;;0.30;0.30;;;9.90;99.90;;;10.30;99.27;99903.25;5016642;28;21091;-63
2022/09/26 05:29:03;;;;;;;0.30;0.30;;;9.90;99.90;;;10.16;100.00;99905.34;4993329;28;20648;-64
2022/09/26 05:31:38;;;;;;;0.30;0.27;;;9.90;99.90;;;10.42;98.88;99890.97;5006998;28;20656;-63
2022/09/26 05:34:09;;;;;;;0.30;0.20;;;9.90;99.90;;;10.56;98.00;99896.69;5031016;28;20695;-64
2022/09/26 05:36:41;;;;;;;0.30;0.20;;;10.00;99.90;;;10.80;96.46;99894.66;5014016;28;20615;-63
2022/09/26 05:40:55;;;;;;;0.30;0.30;;;10.10;99.90;;;11.04;94.75;99898.75;5011973;28;20994;-63
2022/09/26 05:41:57;;;;;;;0.30;0.20;;;10.40;99.90;;;10.91;93.94;99893.75;5009256;28;21203;-63
2022/09/26 05:44:25;;;;;;;0.30;0.20;;;10.40;99.90;;;11.10;93.92;99888.59;4993701;28;20612;-63
2022/09/26 05:46:52;;;;;;;0.30;0.27;;;10.50;99.90;;;11.55;91.73;99889.00;5022025;28;21306;-63
2022/09/26 05:49:19;;;;;;;0.30;0.20;;;10.80;99.90;;;12.03;89.56;99884.69;5029747;28;21199;-64
2022/09/26 05:51:46;;;;;;;0.30;0.20;;;11.10;99.90;;;12.52;86.39;99882.88;5027303;28;21251;-64
2022/09/26 05:54:13;;;;;;;1.57;1.47;;;11.50;99.90;;;12.89;83.62;99884.56;5004590;28;21017;-63
2022/09/26 05:56:40;;;;;;;0.30;0.20;;;11.90;99.90;;;13.67;79.74;99889.31;5027959;28;20632;-63
2022/09/26 05:59:07;;;;;;;0.30;0.30;;;12.40;99.90;;;13.70;77.26;99886.41;5025701;28;21216;-64
2022/09/26 06:01:35;;;;;;;0.30;0.30;;;12.70;99.90;;;13.62;77.79;99883.72;5011226;28;21278;-63
2022/09/26 06:04:02;;;;;;;0.30;0.30;;;12.70;99.90;;;13.73;78.05;99886.13;5027297;28;20695;-64
2022/09/26 06:06:29;;;;;;;0.30;0.20;;;12.80;99.90;;;14.56;74.59;99883.13;5033252;28;20640;-63
2022/09/26 06:08:56;;;;;;;0.30;0.30;;;13.20;99.90;;;15.70;70.28;99889.75;5015550;28;20613;-64
2022/09/26 06:11:29;;;;;;;0.30;0.30;;;14.00;99.90;;;16.48;66.72;99877.81;5032712;28;20656;-64
2022/09/26 06:13:59;;;;;;;0.30;0.30;;;14.60;99.90;;;16.96;63.32;99872.50;5033263;28;20850;-64
2022/09/26 06:16:26;;;;;;;0.30;0.30;;;15.10;99.90;;;16.46;64.55;99875.34;5000344;28;20613;-64
2022/09/26 06:18:54;;;;;;;0.30;0.30;;;15.10;99.90;;;16.37;65.35;99870.25;5033819;28;21017;-64
2022/09/26 06:21:22;;;;;;;0.30;0.30;;;15.00;99.90;;;16.83;63.41;99865.13;5034199;28;20695;-64
2022/09/26 06:23:48;;;;;;;0.30;0.30;;;15.30;99.90;;;16.79;63.61;99855.91;5028422;28;20632;-64
2022/09/26 06:26:21;;;;;;;0.30;0.27;;;15.40;99.90;;;15.79;67.33;99860.69;5034106;28;20678;-64
2022/09/26 06:28:56;;;;;;;0.30;0.30;;;14.80;99.90;;;14.56;72.04;99848.16;5013691;28;21027;-63
2022/09/26 06:31:24;;;;;;;0.30;0.30;;;14.10;99.90;;;14.14;73.36;99849.78;5016002;28;21034;-63
2022/09/26 06:33:52;;;;;;;0.30;0.20;;;13.60;99.90;;;13.46;76.21;99852.06;5025728;28;20666;-63
2022/09/26 06:36:20;;;;;;;0.30;0.30;;;13.10;99.90;;;13.52;76.34;99853.31;5013277;28;21203;-63
2022/09/26 06:38:48;;;;;;;0.30;0.20;;;12.90;99.90;;;13.46;76.91;99861.75;5014849;28;20613;-62
2022/09/26 06:41:15;;;;;;;0.97;0.97;;;12.70;99.90;;;13.30;78.39;99865.00;5032495;28;20644;-63
2022/09/26 06:43:44;;;;;;;0.30;0.30;;;12.60;99.90;;;13.59;76.89;99863.03;5031748;28;20636;-63
2022/09/26 06:46:13;;;;;;;0.60;0.60;;;12.70;99.90;;;13.72;76.92;99855.63;5015113;28;20712;-63
2022/09/26 06:48:41;;;;;;;0.30;0.23;;;12.80;99.90;;;13.77;76.02;99856.03;5013897;28;20616;-63
2022/09/26 06:51:08;;;;;;;0.30;0.30;;;12.90;99.90;;;13.97;75.66;99854.06;5013887;28;20637;-63
2022/09/26 06:53:35;;;;;;;0.30;0.20;;;13.00;99.90;;;14.21;75.31;99848.19;5027636;28;20720;-63
2022/09/26 06:56:02;;;;;;;0.30;0.30;;;13.20;99.90;;;15.38;70.47;99840.50;5026745;28;20683;-63
2022/09/26 06:58:29;;;;;;;0.30;0.20;;;13.90;99.90;;;16.61;65.66;99842.09;5030591;28;20621;-63
2022/09/26 07:00:58;;;;;;;0.30;0.20;;;14.70;99.90;;;17.67;61.30;99835.47;5023924;28;21223;-62
2022/09/26 07:03:25;;;;;;;4.77;1.50;;;15.70;99.90;;;18.54;58.40;99832.28;5014453;28;20637;-63
2022/09/26 07:05:56;;;;;;;0.30;0.30;;;16.50;99.90;;;19.46;56.09;99831.75;5011066;28;20629;-63
2022/09/26 07:08:24;;;;;;;0.30;0.30;;;17.30;99.90;;;20.09;54.13;99834.41;5030733;28;20617;-63
2022/09/26 07:11:11;;;;;;;0.30;0.30;;;18.00;99.90;;;20.47;52.34;99834.13;5017532;28;21226;-64
2022/09/26 07:14:00;;;;;;;0.30;0.30;;;18.50;99.90;;;20.38;52.67;99830.78;5012817;28;20711;-64
2022/09/26 07:16:28;;;;;;;0.30;0.30;;;18.70;99.90;;;20.32;52.69;99823.63;5025954;28;20621;-64
2022/09/26 07:18:56;;;;;;;0.30;0.30;;;18.60;99.90;;;20.00;53.85;99838.19;5014925;28;21168;-64
2022/09/26 07:21:23;;;;;;;0.30;0.30;;;18.60;99.90;;;21.72;49.54;99827.63;5015103;28;20637;-63
2022/09/26 07:23:49;;;;;;;0.30;0.30;;;19.50;99.90;;;22.38;47.14;99834.66;5026347;28;20691;-64
2022/09/26 07:26:17;;;;;;;0.30;0.30;;;20.30;99.90;;;21.94;48.79;99831.75;5004989;28;20679;-64
2022/09/26 07:28:44;;;;;;;0.40;0.40;;;20.30;99.90;;;22.21;47.39;99834.22;4993167;28;20667;-65
2022/09/26 07:31:11;;;;;;;0.30;0.30;;;20.70;99.90;;;22.55;47.00;99824.41;5010354;28;20645;-64
2022/09/26 07:33:39;;;;;;;0.30;0.30;;;20.90;99.80;;;23.86;44.51;99830.09;5032411;28;21000;-64
2022/09/26 07:36:08;;;;;;;0.50;0.50;;;21.80;98.90;;;24.95;41.86;99822.41;5032224;28;20624;-64
2022/09/26 07:38:35;;;;;;;0.30;0.30;;;22.60;96.30;;;24.70;41.48;99818.97;5031944;28;20637;-64
2022/09/26 07:41:02;;;;;;;0.30;0.30;;;23.20;94.20;;;24.89;41.50;99821.47;5014643;28;21204;-65
2022/09/26 07:43:29;;;;;;;0.30;0.30;;;23.20;93.10;;;25.67;39.81;99822.34;5032015;28;20691;-64
2022/09/26 07:51:48;;;;;;;0.30;0.30;;;24.10;90.50;;;26.78;37.52;99814.38;5025074;28;20657;-65
2022/09/26 07:54:16;;;;;;;0.30;0.30;;;24.80;87.90;;;27.71;36.55;99814.13;5026035;28;20756;-63
2022/09/26 07:56:43;;;;;;;0.30;0.30;;;25.40;85.60;;;27.87;35.48;99811.47;5013455;28;20640;-64
2022/09/26 07:59:11;;;;;;;0.30;0.30;;;25.40;83.70;;;28.42;34.79;99808.91;5011873;28;20635;-64
2022/09/26 08:01:38;;;;;;;0.30;0.30;;;26.20;81.20;;;27.41;35.46;99807.16;5013934;28;20649;-65
2022/09/26 08:04:06;;;;;;;0.30;0.30;;;25.90;78.40;;;26.29;38.05;99801.47;5012264;28;20634;-64
2022/09/26 08:06:34;;;;;;;0.30;0.30;;;24.90;79.70;;;27.90;35.75;99796.78;5022071;28;20635;-65
2022/09/26 08:09:01;;;;;;;0.30;0.30;;;25.20;80.50;;;29.22;33.63;99795.00;5012866;28;21176;-65
2022/09/26 08:11:28;;;;;;;1.03;1.03;;;26.00;78.70;;;29.22;33.16;99797.69;5030899;28;20649;-65
2022/09/26 08:13:54;;;;;;;0.30;0.30;;;26.20;77.00;;;29.70;32.42;99798.47;5030793;28;20665;-65
2022/09/26 08:16:22;;;;;;;0.63;0.63;;;26.80;74.40;;;30.07;31.61;99795.03;5031120;28;20621;-65
2022/09/26 08:18:50;;;;;;;0.30;0.30;;;27.00;73.00;;;30.98;30.14;99781.13;5021472;28;21024;-65
2022/09/26 08:21:17;;;;;;;0.30;0.30;;;27.40;72.40;;;32.82;28.10;99796.88;5031544;28;20644;-65
2022/09/26 08:23:48;;;;;;;0.30;0.30;;;28.50;69.70;;;30.22;30.41;99785.19;5011523;28;20613;-71
2022/09/26 08:26:15;;;;;;;2.55;2.35;;;27.60;68.20;;;26.39;nan;99788.31;5014479;28;20791;-69
2022/09/26 08:28:42;;;;;;;3.30;2.23;;;25.30;77.40;;;27.73;nan;99788.69;4991244;28;24510;-68
2022/09/26 08:31:10;;;;;;;2.45;2.20;;;24.90;80.90;;;28.57;nan;99786.88;4907375;28;24501;-68
2022/09/26 08:33:37;;;;;;;2.78;2.58;;;25.80;79.20;;;26.62;nan;99775.75;5026728;28;24442;-68
2022/09/26 08:36:16;;;;;;;2.60;2.40;;;24.50;82.30;;;24.19;nan;99766.72;5028538;28;24498;-68
2022/09/26 08:38:44;;;;;;;2.97;2.78;;;23.30;81.40;;;18.03;nan;99761.78;5013608;28;24535;-68
2022/09/26 08:41:52;;;;;;;3.73;2.63;;;18.80;92.60;;;16.94;nan;99766.44;5020694;28;24543;-68
2022/09/26 08:44:49;;;;;;;3.47;3.17;;;17.10;99.90;;;19.41;nan;99762.69;5022151;28;24611;-69
2022/09/26 08:47:46;;;;;;;2.60;2.47;;;18.20;99.90;;;20.43;nan;99761.34;5011832;28;20199;-62
2022/09/26 08:50:31;;;;;;;5.40;3.80;;;19.30;99.20;;;21.98;nan;99764.75;5006224;28;20649;-62
2022/09/26 08:53:09;;;;;;;2.37;2.23;;;20.10;98.50;;;25.59;nan;99771.09;4744202;28;20691;-69
2022/09/26 08:55:45;;;;;;;2.00;1.90;;;21.90;96.50;;;26.12;nan;99767.41;4928312;28;20661;-63
2022/09/26 08:58:43;;;;;;;5.30;2.00;;;23.30;92.60;;;27.16;nan;99771.81;5000177;28;21095;-64
2022/09/26 09:01:25;;;;;;;1.77;1.67;;;24.40;87.90;;;28.78;nan;99764.59;4993570;28;20663;-64
2022/09/26 09:04:04;;;;;;;2.50;2.03;;;25.30;85.40;;;30.20;nan;99763.13;4993554;28;21061;-65
2022/09/26 09:06:32;;;;;;;1.77;1.67;;;26.80;79.30;;;29.21;nan;99758.44;5009574;28;20637;-65
2022/09/26 09:08:59;;;;;;;1.97;1.87;;;26.80;75.70;;;32.68;nan;99754.53;5011994;28;20625;-64
2022/09/26 09:12:07;;;;;;;1.93;1.50;;;28.00;73.30;;;34.01;nan;99754.34;5033242;22;21336;-65
2022/09/26 09:15:10;;;;;;;1.70;1.60;;;29.00;69.50;;;34.00;nan;99747.25;5005999;28;20661;-66
2022/09/26 09:18:03;;;;;;;3.03;1.80;;;29.70;65.80;;;33.05;nan;99746.03;5008958;28;21201;-65
2022/09/26 09:21:01;;;;;;;1.57;1.47;;;29.60;64.90;;;36.75;nan;99740.88;5005859;28;21027;-64
2022/09/26 09:23:55;;;;;;;2.37;1.93;;;30.50;66.50;;;36.07;nan;99732.66;4974078;28;20623;-67
2022/09/26 09:26:34;;;;;;;1.80;1.70;;;31.70;58.40;;;34.94;nan;99725.66;4977895;28;20635;-65
2022/09/26 09:30:02;;;;;;;1.77;1.70;;;31.30;59.50;;;32.26;nan;99705.50;4981505;28;20722;-65
2022/09/26 09:32:55;;;;;;;1.70;1.60;;;30.10;58.60;;;27.69;nan;99696.44;4973276;28;20680;-65
2022/09/26 09:35:37;;;;;;;1.57;1.47;;;27.70;62.00;;;25.14;nan;99709.25;4993086;28;21225;-65
2022/09/26 09:38:10;;;;;;;1.63;1.57;;;25.10;67.20;;;25.20;nan;99703.84;4983471;28;20644;-65
2022/09/26 09:40:43;;;;;;;1.53;1.50;;;24.50;68.40;;;23.96;nan;99701.75;4989254;28;20655;-64
2022/09/26 09:43:25;;;;;;;1.90;1.80;;;23.60;70.60;;;22.21;nan;99695.28;4962722;28;21178;-64
2022/09/26 09:46:03;;;;;;;2.23;1.80;;;22.20;73.90;;;21.55;nan;99695.25;4987923;28;20621;-67
2022/09/26 09:48:30;;;;;;;2.27;2.10;;;21.30;77.80;;;20.72;nan;99693.00;4999392;28;20657;-63
2022/09/26 09:51:40;;;;;;;1.77;1.50;;;20.60;81.60;;;20.08;nan;99681.03;4996119;28;20652;-62
2022/09/26 09:54:50;;;;;;;1.73;1.63;;;19.80;84.80;;;19.58;nan;99681.22;4977773;28;21142;-62
2022/09/26 09:57:44;;;;;;;3.73;1.43;;;19.20;89.10;;;19.55;nan;99686.91;4998390;28;20656;-63
2022/09/26 10:00:16;;;;;;;1.80;1.70;;;19.00;91.10;;;19.57;nan;99680.41;5008606;28;20700;-61
2022/09/26 10:03:49;;;;;;;2.23;2.13;;;18.80;92.00;;;19.34;nan;99670.03;4980689;28;20652;-63
2022/09/26 10:06:16;;;;;;;2.97;2.10;;;18.70;93.60;;;19.25;nan;99663.19;4978838;28;20643;-63
2022/09/26 10:09:38;;;;;;;1.90;1.80;;;18.50;94.90;;;19.52;nan;99660.84;5012203;28;21034;-63
2022/09/26 10:12:16;;;;;;;8.70;2.17;;;18.50;96.80;;;19.25;nan;99659.75;4982403;28;20701;-63
2022/09/26 10:15:00;;;;;;;3.03;1.80;;;18.50;96.80;;;19.08;nan;99661.81;4996010;28;20726;-63
2022/09/26 10:17:28;;;;;;;5.23;1.70;;;18.40;98.20;;;18.85;nan;99661.16;5001921;28;21153;-64
2022/09/26 10:19:55;;;;;;;1.77;1.67;;;18.20;97.80;;;18.94;nan;99654.75;5013930;28;20606;-63
2022/09/26 10:22:34;;;;;;;2.03;1.43;;;18.20;98.20;;;18.94;nan;99646.81;5009632;28;20616;-64
2022/09/26 10:25:07;;;;;;;3.03;1.60;;;18.20;98.90;;;19.04;nan;99657.06;4958869;28;20635;-64
2022/09/26 10:27:38;;;;;;;1.77;1.57;;;18.10;99.30;;;19.49;nan;99658.56;4957645;28;20684;-63
2022/09/26 10:30:18;;;;;;;1.20;1.20;;;18.20;99.60;;;20.94;nan;99663.69;4992216;28;20647;-63
2022/09/26 10:32:49;;;;;;;1.10;0.73;;;18.80;99.10;;;22.34;nan;99650.88;5004067;28;21209;-63
2022/09/26 10:35:28;;;;;;;1.33;1.20;;;19.90;96.70;;;22.55;nan;99636.50;4977537;28;20668;-64
2022/09/26 10:38:28;;;;;;;1.30;1.20;;;20.50;95.80;;;22.67;nan;99641.97;4992627;28;20591;-64
2022/09/26 10:41:00;;;;;;;1.30;1.30;;;20.90;94.40;;;22.16;nan;99640.09;4975476;28;20647;-64
2022/09/26 10:43:34;;;;;;;1.27;1.20;;;20.90;93.80;;;21.43;nan;99633.19;4976619;28;20638;-64
2022/09/26 10:46:18;;;;;;;1.40;1.30;;;20.60;93.80;;;21.53;nan;99632.78;4993595;28;20638;-64
2022/09/26 10:48:51;;;;;;;1.70;1.60;;;20.50;93.80;;;21.73;nan;99635.44;4976017;28;20728;-64
2022/09/26 10:51:31;;;;;;;1.33;1.30;;;20.50;93.60;;;21.46;nan;99637.28;4975890;28;20662;-64
2022/09/26 10:54:09;;;;;;;0.90;0.90;;;20.40;93.50;;;21.22;nan;99629.91;4977866;28;20606;-64
2022/09/26 10:56:44;;;;;;;1.10;1.00;;;20.40;92.60;;;21.05;nan;99629.50;4993583;28;20669;-64
2022/09/26 10:59:15;;;;;;;1.17;0.93;;;20.10;93.00;;;21.24;nan;99634.00;4977558;28;20613;-64
2022/09/26 11:01:47;;;;;;;1.10;1.00;;;20.00;93.10;;;21.63;nan;99622.59;4990376;28;20664;-64